Jardinopolis, Brazil
Current Conditions -  °F | °C
As of 8:00 AM on Friday 21 Nov 2014 (Local Time) from SBCH Reporting Station
Clear Clear  
Wind Chill: 72°   Ceiling: Unl
Heat Index: 72°   Visibility: 6mi
Dew Point: 61°   Wind: 5mph
Humidity: 69%   Direction: 90°E
Pressure: 29.94"   Gusts: NA
Location:  26.72°S, 52.86°W
Report Text: SBCH 211000Z 09004KT CAVOK 22/16 Q1014
Loading
Personal Weather Stations






























Interactive Weather Map New forecast layout! Learn more

10-Day Weather Forecast

Advertisements
Track Severe Weather on mobile